sensor_id;sensor_type;location;lat;lon;timestamp;P1;durP1;ratioP1;P2;durP2;ratioP2
11496;SDS011;5805;51.542;7.230;2023-06-22T00:00:04;4.57;;;3.72;;
11496;SDS011;5805;51.542;7.230;2023-06-22T00:02:31;4.85;;;3.75;;
11496;SDS011;5805;51.542;7.230;2023-06-22T00:04:56;3.75;;;3.30;;
11496;SDS011;5805;51.542;7.230;2023-06-22T00:07:22;6.53;;;3.53;;
11496;SDS011;5805;51.542;7.230;2023-06-22T00:09:49;5.00;;;3.45;;
11496;SDS011;5805;51.542;7.230;2023-06-22T00:12:15;6.13;;;3.63;;
11496;SDS011;5805;51.542;7.230;2023-06-22T00:14:41;4.68;;;4.10;;
11496;SDS011;5805;51.542;7.230;2023-06-22T00:17:06;6.43;;;3.65;;
11496;SDS011;5805;51.542;7.230;2023-06-22T00:19:32;5.28;;;4.00;;
11496;SDS011;5805;51.542;7.230;2023-06-22T00:21:58;4.57;;;4.07;;
11496;SDS011;5805;51.542;7.230;2023-06-22T00:24:23;6.28;;;3.92;;
11496;SDS011;5805;51.542;7.230;2023-06-22T00:26:51;5.97;;;3.70;;
11496;SDS011;5805;51.542;7.230;2023-06-22T00:29:16;7.53;;;4.00;;
11496;SDS011;5805;51.542;7.230;2023-06-22T00:31:42;4.53;;;3.35;;
11496;SDS011;5805;51.542;7.230;2023-06-22T00:34:08;6.45;;;3.67;;
11496;SDS011;5805;51.542;7.230;2023-06-22T00:36:34;4.40;;;3.60;;
11496;SDS011;5805;51.542;7.230;2023-06-22T00:39:00;4.07;;;3.25;;
11496;SDS011;5805;51.542;7.230;2023-06-22T00:41:25;5.57;;;4.00;;
11496;SDS011;5805;51.542;7.230;2023-06-22T00:43:53;4.63;;;3.50;;
11496;SDS011;5805;51.542;7.230;2023-06-22T00:46:18;5.10;;;3.53;;
11496;SDS011;5805;51.542;7.230;2023-06-22T00:48:44;5.55;;;3.55;;
11496;SDS011;5805;51.542;7.230;2023-06-22T00:51:10;4.30;;;3.40;;
11496;SDS011;5805;51.542;7.230;2023-06-22T00:53:36;6.93;;;3.90;;
11496;SDS011;5805;51.542;7.230;2023-06-22T00:56:02;5.20;;;3.97;;
11496;SDS011;5805;51.542;7.230;2023-06-22T00:58:29;5.15;;;4.15;;
11496;SDS011;5805;51.542;7.230;2023-06-22T01:00:56;4.88;;;4.32;;
11496;SDS011;5805;51.542;7.230;2023-06-22T01:03:22;6.75;;;4.38;;
11496;SDS011;5805;51.542;7.230;2023-06-22T01:05:48;7.07;;;4.68;;
11496;SDS011;5805;51.542;7.230;2023-06-22T01:08:23;6.05;;;4.72;;
11496;SDS011;5805;51.542;7.230;2023-06-22T01:10:57;4.72;;;4.22;;
11496;SDS011;5805;51.542;7.230;2023-06-22T01:13:29;5.68;;;4.55;;
11496;SDS011;5805;51.542;7.230;2023-06-22T01:16:04;7.13;;;4.72;;
11496;SDS011;5805;51.542;7.230;2023-06-22T01:18:35;4.78;;;3.97;;
11496;SDS011;5805;51.542;7.230;2023-06-22T01:21:01;6.63;;;4.38;;
11496;SDS011;5805;51.542;7.230;2023-06-22T01:23:31;6.70;;;4.35;;
11496;SDS011;5805;51.542;7.230;2023-06-22T01:26:06;6.03;;;5.00;;
11496;SDS011;5805;51.542;7.230;2023-06-22T01:28:46;5.93;;;4.38;;
11496;SDS011;5805;51.542;7.230;2023-06-22T01:31:14;6.45;;;5.00;;
11496;SDS011;5805;51.542;7.230;2023-06-22T01:33:43;6.60;;;4.72;;
11496;SDS011;5805;51.542;7.230;2023-06-22T01:36:11;5.25;;;4.75;;
11496;SDS011;5805;51.542;7.230;2023-06-22T01:38:39;6.28;;;4.80;;
11496;SDS011;5805;51.542;7.230;2023-06-22T01:41:06;6.10;;;4.97;;
11496;SDS011;5805;51.542;7.230;2023-06-22T01:43:32;5.28;;;4.78;;
11496;SDS011;5805;51.542;7.230;2023-06-22T01:46:01;6.05;;;5.32;;
11496;SDS011;5805;51.542;7.230;2023-06-22T01:48:27;7.07;;;5.30;;
11496;SDS011;5805;51.542;7.230;2023-06-22T01:50:53;6.35;;;5.40;;
11496;SDS011;5805;51.542;7.230;2023-06-22T01:53:20;27.98;;;5.80;;
11496;SDS011;5805;51.542;7.230;2023-06-22T01:55:46;6.95;;;5.95;;
11496;SDS011;5805;51.542;7.230;2023-06-22T01:58:12;8.63;;;5.72;;
11496;SDS011;5805;51.542;7.230;2023-06-22T02:00:38;7.82;;;5.90;;
11496;SDS011;5805;51.542;7.230;2023-06-22T02:03:11;7.55;;;6.47;;
11496;SDS011;5805;51.542;7.230;2023-06-22T02:05:43;8.05;;;6.38;;
11496;SDS011;5805;51.542;7.230;2023-06-22T02:08:13;8.30;;;6.22;;
11496;SDS011;5805;51.542;7.230;2023-06-22T02:10:43;8.18;;;6.20;;
11496;SDS011;5805;51.542;7.230;2023-06-22T02:13:10;7.55;;;6.45;;
11496;SDS011;5805;51.542;7.230;2023-06-22T02:15:38;7.95;;;6.70;;
11496;SDS011;5805;51.542;7.230;2023-06-22T02:18:04;8.63;;;6.97;;
11496;SDS011;5805;51.542;7.230;2023-06-22T02:20:31;8.57;;;6.93;;
11496;SDS011;5805;51.542;7.230;2023-06-22T02:22:57;8.90;;;7.55;;
11496;SDS011;5805;51.542;7.230;2023-06-22T02:25:23;11.68;;;8.00;;
11496;SDS011;5805;51.542;7.230;2023-06-22T02:27:49;7.80;;;7.03;;
11496;SDS011;5805;51.542;7.230;2023-06-22T02:30:14;9.52;;;8.63;;
11496;SDS011;5805;51.542;7.230;2023-06-22T02:32:40;8.75;;;7.85;;
11496;SDS011;5805;51.542;7.230;2023-06-22T02:35:06;9.48;;;8.48;;
11496;SDS011;5805;51.542;7.230;2023-06-22T02:37:33;8.82;;;7.78;;
11496;SDS011;5805;51.542;7.230;2023-06-22T02:40:00;10.90;;;8.02;;
11496;SDS011;5805;51.542;7.230;2023-06-22T02:42:26;7.90;;;7.13;;
11496;SDS011;5805;51.542;7.230;2023-06-22T02:44:52;12.07;;;9.20;;
11496;SDS011;5805;51.542;7.230;2023-06-22T02:47:18;9.23;;;8.32;;
11496;SDS011;5805;51.542;7.230;2023-06-22T02:49:43;10.07;;;8.75;;
11496;SDS011;5805;51.542;7.230;2023-06-22T02:52:09;10.88;;;7.55;;
11496;SDS011;5805;51.542;7.230;2023-06-22T02:54:36;9.85;;;8.85;;
11496;SDS011;5805;51.542;7.230;2023-06-22T02:57:02;9.43;;;8.15;;
11496;SDS011;5805;51.542;7.230;2023-06-22T02:59:28;10.25;;;9.25;;
11496;SDS011;5805;51.542;7.230;2023-06-22T03:01:54;11.38;;;10.15;;
11496;SDS011;5805;51.542;7.230;2023-06-22T03:04:19;10.07;;;9.10;;
11496;SDS011;5805;51.542;7.230;2023-06-22T03:06:45;9.38;;;8.43;;
11496;SDS011;5805;51.542;7.230;2023-06-22T03:09:11;11.38;;;9.02;;
11496;SDS011;5805;51.542;7.230;2023-06-22T03:11:38;11.13;;;8.80;;
11496;SDS011;5805;51.542;7.230;2023-06-22T03:14:03;10.68;;;9.20;;
11496;SDS011;5805;51.542;7.230;2023-06-22T03:16:29;10.95;;;9.07;;
11496;SDS011;5805;51.542;7.230;2023-06-22T03:18:55;11.60;;;8.70;;
11496;SDS011;5805;51.542;7.230;2023-06-22T03:21:21;12.48;;;9.65;;
11496;SDS011;5805;51.542;7.230;2023-06-22T03:23:48;11.60;;;9.70;;
11496;SDS011;5805;51.542;7.230;2023-06-22T03:26:16;12.02;;;9.95;;
11496;SDS011;5805;51.542;7.230;2023-06-22T03:28:43;10.80;;;9.27;;
11496;SDS011;5805;51.542;7.230;2023-06-22T03:31:09;12.45;;;9.38;;
11496;SDS011;5805;51.542;7.230;2023-06-22T03:33:34;13.68;;;10.45;;
11496;SDS011;5805;51.542;7.230;2023-06-22T03:36:00;12.77;;;10.85;;
11496;SDS011;5805;51.542;7.230;2023-06-22T03:38:26;11.15;;;10.05;;
11496;SDS011;5805;51.542;7.230;2023-06-22T03:40:52;12.70;;;11.40;;
11496;SDS011;5805;51.542;7.230;2023-06-22T03:43:17;11.52;;;10.32;;
11496;SDS011;5805;51.542;7.230;2023-06-22T03:45:44;11.50;;;10.30;;
11496;SDS011;5805;51.542;7.230;2023-06-22T03:48:10;13.00;;;10.32;;
11496;SDS011;5805;51.542;7.230;2023-06-22T03:50:36;12.95;;;10.55;;
11496;SDS011;5805;51.542;7.230;2023-06-22T03:53:02;10.95;;;9.90;;
11496;SDS011;5805;51.542;7.230;2023-06-22T03:55:27;11.25;;;10.07;;
11496;SDS011;5805;51.542;7.230;2023-06-22T03:57:53;11.25;;;10.15;;
11496;SDS011;5805;51.542;7.230;2023-06-22T04:00:19;12.60;;;10.57;;
11496;SDS011;5805;51.542;7.230;2023-06-22T04:02:46;11.88;;;10.68;;
11496;SDS011;5805;51.542;7.230;2023-06-22T04:05:11;13.13;;;11.43;;
11496;SDS011;5805;51.542;7.230;2023-06-22T04:07:37;12.27;;;11.18;;
11496;SDS011;5805;51.542;7.230;2023-06-22T04:10:03;13.32;;;10.90;;
11496;SDS011;5805;51.542;7.230;2023-06-22T04:12:29;11.93;;;10.73;;
11496;SDS011;5805;51.542;7.230;2023-06-22T04:14:55;13.45;;;11.02;;
11496;SDS011;5805;51.542;7.230;2023-06-22T04:17:20;12.90;;;11.50;;
11496;SDS011;5805;51.542;7.230;2023-06-22T04:19:48;12.95;;;11.43;;
11496;SDS011;5805;51.542;7.230;2023-06-22T04:22:13;16.05;;;11.93;;
11496;SDS011;5805;51.542;7.230;2023-06-22T04:24:39;11.63;;;10.43;;
11496;SDS011;5805;51.542;7.230;2023-06-22T04:27:05;14.88;;;11.95;;
11496;SDS011;5805;51.542;7.230;2023-06-22T04:29:31;13.63;;;11.35;;
11496;SDS011;5805;51.542;7.230;2023-06-22T04:31:56;12.43;;;11.13;;
11496;SDS011;5805;51.542;7.230;2023-06-22T04:34:22;12.38;;;11.23;;
11496;SDS011;5805;51.542;7.230;2023-06-22T04:36:52;13.88;;;12.30;;
11496;SDS011;5805;51.542;7.230;2023-06-22T04:39:18;14.18;;;11.93;;
11496;SDS011;5805;51.542;7.230;2023-06-22T04:41:44;12.20;;;10.98;;
11496;SDS011;5805;51.542;7.230;2023-06-22T04:44:10;13.80;;;11.57;;
11496;SDS011;5805;51.542;7.230;2023-06-22T04:46:36;13.80;;;11.35;;
11496;SDS011;5805;51.542;7.230;2023-06-22T04:49:02;14.25;;;11.93;;
11496;SDS011;5805;51.542;7.230;2023-06-22T04:51:28;13.80;;;12.55;;
11496;SDS011;5805;51.542;7.230;2023-06-22T04:53:55;13.55;;;12.05;;
11496;SDS011;5805;51.542;7.230;2023-06-22T04:56:21;13.45;;;12.07;;
11496;SDS011;5805;51.542;7.230;2023-06-22T04:58:47;13.90;;;12.38;;
11496;SDS011;5805;51.542;7.230;2023-06-22T05:01:12;14.18;;;12.45;;
11496;SDS011;5805;51.542;7.230;2023-06-22T05:03:38;13.43;;;12.15;;
11496;SDS011;5805;51.542;7.230;2023-06-22T05:06:04;13.45;;;12.05;;
11496;SDS011;5805;51.542;7.230;2023-06-22T05:08:29;12.02;;;10.80;;
11496;SDS011;5805;51.542;7.230;2023-06-22T05:10:56;13.60;;;11.65;;
11496;SDS011;5805;51.542;7.230;2023-06-22T05:13:22;15.20;;;12.15;;
11496;SDS011;5805;51.542;7.230;2023-06-22T05:15:48;16.25;;;11.77;;
11496;SDS011;5805;51.542;7.230;2023-06-22T05:18:13;15.50;;;10.57;;
11496;SDS011;5805;51.542;7.230;2023-06-22T05:20:39;14.00;;;12.30;;
11496;SDS011;5805;51.542;7.230;2023-06-22T05:23:05;12.45;;;11.23;;
11496;SDS011;5805;51.542;7.230;2023-06-22T05:25:31;13.57;;;12.13;;
11496;SDS011;5805;51.542;7.230;2023-06-22T05:27:58;13.23;;;11.82;;
11496;SDS011;5805;51.542;7.230;2023-06-22T05:30:23;12.38;;;11.18;;
11496;SDS011;5805;51.542;7.230;2023-06-22T05:32:49;12.38;;;11.23;;
11496;SDS011;5805;51.542;7.230;2023-06-22T05:35:15;13.23;;;11.20;;
11496;SDS011;5805;51.542;7.230;2023-06-22T05:37:40;12.82;;;10.68;;
11496;SDS011;5805;51.542;7.230;2023-06-22T05:40:08;11.63;;;10.35;;
11496;SDS011;5805;51.542;7.230;2023-06-22T05:42:34;14.15;;;11.07;;
11496;SDS011;5805;51.542;7.230;2023-06-22T05:45:01;13.18;;;11.25;;
11496;SDS011;5805;51.542;7.230;2023-06-22T05:47:27;12.38;;;10.73;;
11496;SDS011;5805;51.542;7.230;2023-06-22T05:49:53;12.15;;;10.75;;
11496;SDS011;5805;51.542;7.230;2023-06-22T05:52:18;12.13;;;10.88;;
11496;SDS011;5805;51.542;7.230;2023-06-22T05:54:44;14.25;;;11.88;;
11496;SDS011;5805;51.542;7.230;2023-06-22T05:57:10;15.77;;;11.95;;
11496;SDS011;5805;51.542;7.230;2023-06-22T05:59:35;13.15;;;11.75;;
11496;SDS011;5805;51.542;7.230;2023-06-22T06:02:03;18.30;;;11.50;;
11496;SDS011;5805;51.542;7.230;2023-06-22T06:04:29;16.95;;;11.60;;
11496;SDS011;5805;51.542;7.230;2023-06-22T06:06:54;12.23;;;11.02;;
11496;SDS011;5805;51.542;7.230;2023-06-22T06:09:20;13.13;;;11.82;;
11496;SDS011;5805;51.542;7.230;2023-06-22T06:11:46;14.70;;;10.75;;
11496;SDS011;5805;51.542;7.230;2023-06-22T06:14:11;12.88;;;11.57;;
11496;SDS011;5805;51.542;7.230;2023-06-22T06:16:37;13.90;;;10.82;;
11496;SDS011;5805;51.542;7.230;2023-06-22T06:19:04;12.55;;;11.45;;
11496;SDS011;5805;51.542;7.230;2023-06-22T06:21:30;12.85;;;11.52;;
11496;SDS011;5805;51.542;7.230;2023-06-22T06:23:56;13.17;;;11.87;;
11496;SDS011;5805;51.542;7.230;2023-06-22T06:26:21;11.60;;;10.40;;
11496;SDS011;5805;51.542;7.230;2023-06-22T06:28:47;11.63;;;10.38;;
11496;SDS011;5805;51.542;7.230;2023-06-22T06:31:13;15.52;;;11.02;;
11496;SDS011;5805;51.542;7.230;2023-06-22T06:33:38;12.23;;;11.13;;
11496;SDS011;5805;51.542;7.230;2023-06-22T06:36:05;12.23;;;11.02;;
11496;SDS011;5805;51.542;7.230;2023-06-22T06:38:31;12.60;;;11.00;;
11496;SDS011;5805;51.542;7.230;2023-06-22T06:40:57;12.77;;;10.60;;
11496;SDS011;5805;51.542;7.230;2023-06-22T06:43:23;20.67;;;11.68;;
11496;SDS011;5805;51.542;7.230;2023-06-22T06:45:49;14.35;;;11.05;;
11496;SDS011;5805;51.542;7.230;2023-06-22T06:48:14;13.68;;;10.75;;
11496;SDS011;5805;51.542;7.230;2023-06-22T06:50:40;11.38;;;10.25;;
11496;SDS011;5805;51.542;7.230;2023-06-22T06:53:07;13.48;;;10.30;;
11496;SDS011;5805;51.542;7.230;2023-06-22T06:55:33;17.05;;;10.30;;
11496;SDS011;5805;51.542;7.230;2023-06-22T06:57:58;19.33;;;11.20;;
11496;SDS011;5805;51.542;7.230;2023-06-22T07:00:24;15.80;;;10.02;;
11496;SDS011;5805;51.542;7.230;2023-06-22T07:02:50;12.65;;;10.15;;
11496;SDS011;5805;51.542;7.230;2023-06-22T07:05:15;12.55;;;9.88;;
11496;SDS011;5805;51.542;7.230;2023-06-22T07:07:41;11.55;;;10.00;;
11496;SDS011;5805;51.542;7.230;2023-06-22T07:10:09;11.52;;;10.05;;
11496;SDS011;5805;51.542;7.230;2023-06-22T07:12:35;11.63;;;10.43;;
11496;SDS011;5805;51.542;7.230;2023-06-22T07:15:02;12.23;;;10.00;;
11496;SDS011;5805;51.542;7.230;2023-06-22T07:17:28;13.82;;;9.80;;
11496;SDS011;5805;51.542;7.230;2023-06-22T07:19:54;17.67;;;10.70;;
11496;SDS011;5805;51.542;7.230;2023-06-22T07:22:20;10.80;;;9.70;;
11496;SDS011;5805;51.542;7.230;2023-06-22T07:24:45;14.38;;;10.68;;
11496;SDS011;5805;51.542;7.230;2023-06-22T07:27:13;15.88;;;11.57;;
11496;SDS011;5805;51.542;7.230;2023-06-22T07:29:38;11.77;;;10.57;;
11496;SDS011;5805;51.542;7.230;2023-06-22T07:32:04;13.00;;;10.45;;
11496;SDS011;5805;51.542;7.230;2023-06-22T07:34:30;13.05;;;10.07;;
11496;SDS011;5805;51.542;7.230;2023-06-22T07:36:56;12.15;;;10.85;;
11496;SDS011;5805;51.542;7.230;2023-06-22T07:39:21;12.77;;;10.00;;
11496;SDS011;5805;51.542;7.230;2023-06-22T07:41:47;12.05;;;10.77;;
11496;SDS011;5805;51.542;7.230;2023-06-22T07:44:14;15.00;;;10.55;;
11496;SDS011;5805;51.542;7.230;2023-06-22T07:46:40;12.50;;;10.93;;
11496;SDS011;5805;51.542;7.230;2023-06-22T07:49:06;14.73;;;10.93;;
11496;SDS011;5805;51.542;7.230;2023-06-22T07:51:31;14.20;;;10.60;;
11496;SDS011;5805;51.542;7.230;2023-06-22T07:53:57;17.05;;;12.60;;
11496;SDS011;5805;51.542;7.230;2023-06-22T07:56:23;15.10;;;12.48;;
11496;SDS011;5805;51.542;7.230;2023-06-22T07:58:48;12.63;;;11.30;;
11496;SDS011;5805;51.542;7.230;2023-06-22T08:01:15;14.43;;;11.77;;
11496;SDS011;5805;51.542;7.230;2023-06-22T08:03:41;18.02;;;12.40;;
11496;SDS011;5805;51.542;7.230;2023-06-22T08:06:07;13.52;;;10.93;;
11496;SDS011;5805;51.542;7.230;2023-06-22T08:08:33;15.85;;;11.68;;
11496;SDS011;5805;51.542;7.230;2023-06-22T08:10:58;25.38;;;12.90;;
11496;SDS011;5805;51.542;7.230;2023-06-22T08:13:24;14.07;;;12.63;;
11496;SDS011;5805;51.542;7.230;2023-06-22T08:15:50;13.98;;;12.07;;
11496;SDS011;5805;51.542;7.230;2023-06-22T08:18:17;15.02;;;12.05;;
11496;SDS011;5805;51.542;7.230;2023-06-22T08:20:43;15.57;;;13.77;;
11496;SDS011;5805;51.542;7.230;2023-06-22T08:23:08;17.95;;;12.85;;
11496;SDS011;5805;51.542;7.230;2023-06-22T08:25:34;17.17;;;14.88;;
11496;SDS011;5805;51.542;7.230;2023-06-22T08:28:00;14.60;;;13.20;;
11496;SDS011;5805;51.542;7.230;2023-06-22T08:30:26;15.65;;;13.82;;
11496;SDS011;5805;51.542;7.230;2023-06-22T08:32:52;16.08;;;14.38;;
11496;SDS011;5805;51.542;7.230;2023-06-22T08:35:19;14.80;;;13.20;;
11496;SDS011;5805;51.542;7.230;2023-06-22T08:37:45;15.18;;;13.57;;
11496;SDS011;5805;51.542;7.230;2023-06-22T08:40:11;15.73;;;14.18;;
11496;SDS011;5805;51.542;7.230;2023-06-22T08:42:37;16.45;;;13.90;;
11496;SDS011;5805;51.542;7.230;2023-06-22T08:45:03;16.77;;;13.18;;
11496;SDS011;5805;51.542;7.230;2023-06-22T08:47:29;21.25;;;14.10;;
11496;SDS011;5805;51.542;7.230;2023-06-22T08:49:55;14.10;;;12.80;;
11496;SDS011;5805;51.542;7.230;2023-06-22T08:52:22;18.05;;;14.60;;
11496;SDS011;5805;51.542;7.230;2023-06-22T08:54:49;15.73;;;13.10;;
11496;SDS011;5805;51.542;7.230;2023-06-22T08:57:14;16.55;;;13.60;;
11496;SDS011;5805;51.542;7.230;2023-06-22T08:59:40;14.52;;;13.05;;
11496;SDS011;5805;51.542;7.230;2023-06-22T09:02:06;15.77;;;12.63;;
11496;SDS011;5805;51.542;7.230;2023-06-22T09:04:32;15.13;;;13.63;;
11496;SDS011;5805;51.542;7.230;2023-06-22T09:06:58;16.05;;;14.35;;
11496;SDS011;5805;51.542;7.230;2023-06-22T09:09:25;15.40;;;13.88;;
11496;SDS011;5805;51.542;7.230;2023-06-22T09:11:50;14.60;;;13.10;;
11496;SDS011;5805;51.542;7.230;2023-06-22T09:14:16;13.98;;;12.48;;
11496;SDS011;5805;51.542;7.230;2023-06-22T09:16:42;14.57;;;13.07;;
11496;SDS011;5805;51.542;7.230;2023-06-22T09:19:08;15.10;;;13.57;;
11496;SDS011;5805;51.542;7.230;2023-06-22T09:21:33;14.55;;;13.05;;
11496;SDS011;5805;51.542;7.230;2023-06-22T09:23:59;14.32;;;12.93;;
11496;SDS011;5805;51.542;7.230;2023-06-22T09:26:26;14.27;;;12.93;;
11496;SDS011;5805;51.542;7.230;2023-06-22T09:28:52;14.27;;;12.88;;
11496;SDS011;5805;51.542;7.230;2023-06-22T09:31:18;14.05;;;12.65;;
11496;SDS011;5805;51.542;7.230;2023-06-22T09:33:44;14.45;;;12.57;;
11496;SDS011;5805;51.542;7.230;2023-06-22T09:36:09;15.40;;;13.90;;
11496;SDS011;5805;51.542;7.230;2023-06-22T09:38:35;16.45;;;13.32;;
11496;SDS011;5805;51.542;7.230;2023-06-22T09:41:01;14.93;;;13.50;;
11496;SDS011;5805;51.542;7.230;2023-06-22T09:43:29;16.83;;;15.18;;
11496;SDS011;5805;51.542;7.230;2023-06-22T09:45:56;20.75;;;15.10;;
11496;SDS011;5805;51.542;7.230;2023-06-22T09:48:22;14.63;;;13.13;;
11496;SDS011;5805;51.542;7.230;2023-06-22T09:50:48;16.00;;;14.50;;
11496;SDS011;5805;51.542;7.230;2023-06-22T09:53:14;14.70;;;12.98;;
11496;SDS011;5805;51.542;7.230;2023-06-22T09:55:40;14.20;;;12.93;;
11496;SDS011;5805;51.542;7.230;2023-06-22T09:58:05;15.80;;;13.30;;
11496;SDS011;5805;51.542;7.230;2023-06-22T10:00:32;14.88;;;13.45;;
11496;SDS011;5805;51.542;7.230;2023-06-22T10:02:58;14.60;;;12.20;;
11496;SDS011;5805;51.542;7.230;2023-06-22T10:05:24;15.10;;;13.55;;
11496;SDS011;5805;51.542;7.230;2023-06-22T10:07:49;13.85;;;12.45;;
11496;SDS011;5805;51.542;7.230;2023-06-22T10:10:15;13.60;;;12.20;;
11496;SDS011;5805;51.542;7.230;2023-06-22T10:12:41;12.90;;;11.63;;
11496;SDS011;5805;51.542;7.230;2023-06-22T10:15:10;13.05;;;11.73;;
11496;SDS011;5805;51.542;7.230;2023-06-22T10:17:37;12.45;;;10.75;;
11496;SDS011;5805;51.542;7.230;2023-06-22T10:20:03;13.43;;;11.88;;
11496;SDS011;5805;51.542;7.230;2023-06-22T10:22:30;14.85;;;10.57;;
11496;SDS011;5805;51.542;7.230;2023-06-22T10:24:56;13.32;;;11.98;;
11496;SDS011;5805;51.542;7.230;2023-06-22T10:27:21;14.50;;;11.32;;
11496;SDS011;5805;51.542;7.230;2023-06-22T10:29:47;12.02;;;10.80;;
11496;SDS011;5805;51.542;7.230;2023-06-22T10:32:13;10.90;;;9.57;;
11496;SDS011;5805;51.542;7.230;2023-06-22T10:34:40;13.40;;;9.73;;
11496;SDS011;5805;51.542;7.230;2023-06-22T10:37:05;10.35;;;9.18;;
11496;SDS011;5805;51.542;7.230;2023-06-22T10:39:31;10.57;;;9.48;;
11496;SDS011;5805;51.542;7.230;2023-06-22T10:41:57;10.88;;;9.75;;
11496;SDS011;5805;51.542;7.230;2023-06-22T10:44:22;11.95;;;9.32;;
11496;SDS011;5805;51.542;7.230;2023-06-22T10:46:48;10.10;;;9.15;;
11496;SDS011;5805;51.542;7.230;2023-06-22T10:49:14;11.48;;;9.98;;
11496;SDS011;5805;51.542;7.230;2023-06-22T10:51:41;11.57;;;9.13;;
11496;SDS011;5805;51.542;7.230;2023-06-22T10:54:06;10.38;;;9.32;;
11496;SDS011;5805;51.542;7.230;2023-06-22T10:56:32;12.23;;;10.75;;
11496;SDS011;5805;51.542;7.230;2023-06-22T10:58:58;11.15;;;10.05;;
11496;SDS011;5805;51.542;7.230;2023-06-22T11:01:24;11.80;;;9.10;;
11496;SDS011;5805;51.542;7.230;2023-06-22T11:03:49;10.68;;;9.57;;
11496;SDS011;5805;51.542;7.230;2023-06-22T11:06:15;12.00;;;10.93;;
11496;SDS011;5805;51.542;7.230;2023-06-22T11:08:44;11.73;;;10.65;;
11496;SDS011;5805;51.542;7.230;2023-06-22T11:11:10;12.68;;;11.38;;
11496;SDS011;5805;51.542;7.230;2023-06-22T11:13:36;12.98;;;11.57;;
11496;SDS011;5805;51.542;7.230;2023-06-22T11:16:01;13.20;;;11.35;;
11496;SDS011;5805;51.542;7.230;2023-06-22T11:18:27;12.85;;;10.80;;
11496;SDS011;5805;51.542;7.230;2023-06-22T11:20:53;12.93;;;11.63;;
11496;SDS011;5805;51.542;7.230;2023-06-22T11:23:19;13.70;;;12.30;;
11496;SDS011;5805;51.542;7.230;2023-06-22T11:25:46;16.67;;;13.45;;
11496;SDS011;5805;51.542;7.230;2023-06-22T11:28:11;14.30;;;12.98;;
11496;SDS011;5805;51.542;7.230;2023-06-22T11:30:37;14.63;;;13.30;;
11496;SDS011;5805;51.542;7.230;2023-06-22T11:33:03;14.50;;;13.20;;
11496;SDS011;5805;51.542;7.230;2023-06-22T11:35:28;16.27;;;14.77;;
11496;SDS011;5805;51.542;7.230;2023-06-22T11:37:54;16.45;;;14.95;;
11496;SDS011;5805;51.542;7.230;2023-06-22T11:40:20;15.95;;;14.43;;
11496;SDS011;5805;51.542;7.230;2023-06-22T11:42:47;18.48;;;16.55;;
11496;SDS011;5805;51.542;7.230;2023-06-22T11:45:12;17.65;;;15.82;;
11496;SDS011;5805;51.542;7.230;2023-06-22T11:47:38;19.02;;;17.17;;
11496;SDS011;5805;51.542;7.230;2023-06-22T11:50:04;21.42;;;19.10;;
11496;SDS011;5805;51.542;7.230;2023-06-22T11:52:31;20.40;;;18.40;;
11496;SDS011;5805;51.542;7.230;2023-06-22T11:54:58;20.95;;;18.75;;
11496;SDS011;5805;51.542;7.230;2023-06-22T11:57:23;21.77;;;19.52;;
11496;SDS011;5805;51.542;7.230;2023-06-22T11:59:50;22.88;;;20.38;;
11496;SDS011;5805;51.542;7.230;2023-06-22T12:02:16;24.85;;;20.38;;
11496;SDS011;5805;51.542;7.230;2023-06-22T12:04:42;25.40;;;21.05;;
11496;SDS011;5805;51.542;7.230;2023-06-22T12:07:08;22.35;;;19.98;;
11496;SDS011;5805;51.542;7.230;2023-06-22T12:09:33;24.45;;;21.77;;
11496;SDS011;5805;51.542;7.230;2023-06-22T12:11:59;25.13;;;22.48;;
11496;SDS011;5805;51.542;7.230;2023-06-22T12:14:25;26.05;;;23.27;;
11496;SDS011;5805;51.542;7.230;2023-06-22T12:16:52;26.80;;;23.45;;
11496;SDS011;5805;51.542;7.230;2023-06-22T12:19:17;30.05;;;24.23;;
11496;SDS011;5805;51.542;7.230;2023-06-22T12:21:43;26.80;;;23.17;;
11496;SDS011;5805;51.542;7.230;2023-06-22T12:24:09;27.13;;;24.45;;
11496;SDS011;5805;51.542;7.230;2023-06-22T12:26:34;29.45;;;23.50;;
11496;SDS011;5805;51.542;7.230;2023-06-22T12:29:00;28.42;;;25.23;;
11496;SDS011;5805;51.542;7.230;2023-06-22T12:31:26;27.45;;;24.60;;
11496;SDS011;5805;51.542;7.230;2023-06-22T12:33:53;27.35;;;23.77;;
11496;SDS011;5805;51.542;7.230;2023-06-22T12:36:18;24.55;;;22.15;;
11496;SDS011;5805;51.542;7.230;2023-06-22T12:38:44;27.00;;;23.38;;
11496;SDS011;5805;51.542;7.230;2023-06-22T12:41:10;26.35;;;23.73;;
11496;SDS011;5805;51.542;7.230;2023-06-22T12:43:35;26.10;;;23.65;;
11496;SDS011;5805;51.542;7.230;2023-06-22T12:46:01;26.95;;;24.15;;
11496;SDS011;5805;51.542;7.230;2023-06-22T12:48:27;26.80;;;24.02;;
11496;SDS011;5805;51.542;7.230;2023-06-22T12:50:54;28.80;;;25.80;;
11496;SDS011;5805;51.542;7.230;2023-06-22T12:53:20;28.63;;;25.67;;
11496;SDS011;5805;51.542;7.230;2023-06-22T12:55:45;28.35;;;25.25;;
11496;SDS011;5805;51.542;7.230;2023-06-22T12:58:11;26.48;;;23.90;;
11496;SDS011;5805;51.542;7.230;2023-06-22T13:00:37;28.92;;;26.02;;
11496;SDS011;5805;51.542;7.230;2023-06-22T13:03:03;30.05;;;26.42;;
11496;SDS011;5805;51.542;7.230;2023-06-22T13:05:29;27.92;;;25.17;;
11496;SDS011;5805;51.542;7.230;2023-06-22T13:07:56;28.35;;;25.48;;
11496;SDS011;5805;51.542;7.230;2023-06-22T13:10:22;29.23;;;26.23;;
11496;SDS011;5805;51.542;7.230;2023-06-22T13:12:47;27.90;;;25.13;;
11496;SDS011;5805;51.542;7.230;2023-06-22T13:15:13;26.52;;;23.90;;
11496;SDS011;5805;51.542;7.230;2023-06-22T13:17:39;27.13;;;24.45;;
11496;SDS011;5805;51.542;7.230;2023-06-22T13:20:05;28.95;;;23.60;;
11496;SDS011;5805;51.542;7.230;2023-06-22T13:22:32;24.77;;;22.42;;
11496;SDS011;5805;51.542;7.230;2023-06-22T13:25:00;22.02;;;19.88;;
11496;SDS011;5805;51.542;7.230;2023-06-22T13:27:26;22.15;;;19.85;;
11496;SDS011;5805;51.542;7.230;2023-06-22T13:29:52;22.50;;;18.60;;
11496;SDS011;5805;51.542;7.230;2023-06-22T13:32:18;15.13;;;13.73;;
11496;SDS011;5805;51.542;7.230;2023-06-22T13:34:43;15.88;;;14.48;;
11496;SDS011;5805;51.542;7.230;2023-06-22T13:37:09;16.30;;;14.80;;
11496;SDS011;5805;51.542;7.230;2023-06-22T13:39:35;15.52;;;14.13;;
11496;SDS011;5805;51.542;7.230;2023-06-22T13:42:02;14.95;;;13.45;;
11496;SDS011;5805;51.542;7.230;2023-06-22T13:44:28;14.55;;;13.00;;
11496;SDS011;5805;51.542;7.230;2023-06-22T13:46:53;14.60;;;13.30;;
11496;SDS011;5805;51.542;7.230;2023-06-22T13:49:19;14.00;;;12.43;;
11496;SDS011;5805;51.542;7.230;2023-06-22T13:51:45;13.05;;;11.90;;
11496;SDS011;5805;51.542;7.230;2023-06-22T13:54:10;13.93;;;12.63;;
11496;SDS011;5805;51.542;7.230;2023-06-22T13:56:36;13.32;;;12.05;;
11496;SDS011;5805;51.542;7.230;2023-06-22T13:59:03;13.68;;;12.43;;
11496;SDS011;5805;51.542;7.230;2023-06-22T14:01:29;14.05;;;12.38;;
11496;SDS011;5805;51.542;7.230;2023-06-22T14:03:55;13.10;;;11.85;;
11496;SDS011;5805;51.542;7.230;2023-06-22T14:06:20;13.57;;;12.27;;
11496;SDS011;5805;51.542;7.230;2023-06-22T14:08:46;13.13;;;11.77;;
11496;SDS011;5805;51.542;7.230;2023-06-22T14:11:12;12.90;;;11.57;;
11496;SDS011;5805;51.542;7.230;2023-06-22T14:13:37;12.50;;;11.40;;
11496;SDS011;5805;51.542;7.230;2023-06-22T14:16:04;11.80;;;10.70;;
11496;SDS011;5805;51.542;7.230;2023-06-22T14:18:30;12.00;;;10.85;;
11496;SDS011;5805;51.542;7.230;2023-06-22T14:20:56;12.25;;;11.05;;
11496;SDS011;5805;51.542;7.230;2023-06-22T14:23:21;11.30;;;10.10;;
11496;SDS011;5805;51.542;7.230;2023-06-22T14:25:47;12.80;;;11.52;;
11496;SDS011;5805;51.542;7.230;2023-06-22T14:28:13;12.73;;;11.45;;
11496;SDS011;5805;51.542;7.230;2023-06-22T14:30:39;12.20;;;11.20;;
11496;SDS011;5805;51.542;7.230;2023-06-22T14:33:06;12.38;;;11.27;;